sensor_id;sensor_type;location;lat;lon;timestamp;temperature;humidity
66271;DHT22;53063;39.614;8.814;2022-07-29T00:00:59;24.20;82.20
66271;DHT22;53063;39.614;8.814;2022-07-29T00:03:25;24.30;82.00
66271;DHT22;53063;39.614;8.814;2022-07-29T00:05:51;24.20;81.80
66271;DHT22;53063;39.614;8.814;2022-07-29T00:08:18;23.90;82.10
66271;DHT22;53063;39.614;8.814;2022-07-29T00:10:44;23.80;82.40
66271;DHT22;53063;39.614;8.814;2022-07-29T00:13:10;23.80;82.60
66271;DHT22;53063;39.614;8.814;2022-07-29T00:15:36;23.90;82.50
66271;DHT22;53063;39.614;8.814;2022-07-29T00:18:02;24.10;83.20
66271;DHT22;53063;39.614;8.814;2022-07-29T00:20:28;24.30;83.00
66271;DHT22;53063;39.614;8.814;2022-07-29T00:22:54;24.20;82.60
66271;DHT22;53063;39.614;8.814;2022-07-29T00:25:20;24.20;82.70
66271;DHT22;53063;39.614;8.814;2022-07-29T00:27:46;24.10;82.80
66271;DHT22;53063;39.614;8.814;2022-07-29T00:30:12;24.00;82.80
66271;DHT22;53063;39.614;8.814;2022-07-29T00:32:38;23.80;82.50
66271;DHT22;53063;39.614;8.814;2022-07-29T00:35:05;23.70;82.60
66271;DHT22;53063;39.614;8.814;2022-07-29T00:37:50;23.70;82.80
66271;DHT22;53063;39.614;8.814;2022-07-29T00:40:15;23.70;83.10
66271;DHT22;53063;39.614;8.814;2022-07-29T00:42:46;23.70;83.30
66271;DHT22;53063;39.614;8.814;2022-07-29T00:45:12;23.60;83.70
66271;DHT22;53063;39.614;8.814;2022-07-29T00:47:39;23.50;83.80
66271;DHT22;53063;39.614;8.814;2022-07-29T00:50:07;23.50;84.20
66271;DHT22;53063;39.614;8.814;2022-07-29T00:52:35;23.40;84.10
66271;DHT22;53063;39.614;8.814;2022-07-29T00:55:04;23.60;84.00
66271;DHT22;53063;39.614;8.814;2022-07-29T00:57:30;23.60;84.00
66271;DHT22;53063;39.614;8.814;2022-07-29T00:59:56;23.50;83.90
66271;DHT22;53063;39.614;8.814;2022-07-29T01:02:22;23.50;84.70
66271;DHT22;53063;39.614;8.814;2022-07-29T01:04:48;23.60;85.00
66271;DHT22;53063;39.614;8.814;2022-07-29T01:07:14;23.70;84.50
66271;DHT22;53063;39.614;8.814;2022-07-29T01:09:42;23.60;84.20
66271;DHT22;53063;39.614;8.814;2022-07-29T01:12:09;23.40;84.30
66271;DHT22;53063;39.614;8.814;2022-07-29T01:14:36;23.40;84.80
66271;DHT22;53063;39.614;8.814;2022-07-29T01:17:25;23.30;85.00
66271;DHT22;53063;39.614;8.814;2022-07-29T01:26:31;23.50;85.30
66271;DHT22;53063;39.614;8.814;2022-07-29T01:32:24;23.50;85.10
66271;DHT22;53063;39.614;8.814;2022-07-29T01:37:38;23.70;84.40
66271;DHT22;53063;39.614;8.814;2022-07-29T01:40:08;23.60;84.80
66271;DHT22;53063;39.614;8.814;2022-07-29T01:42:38;23.70;84.50
66271;DHT22;53063;39.614;8.814;2022-07-29T01:46:11;23.70;84.40
66271;DHT22;53063;39.614;8.814;2022-07-29T01:48:31;23.60;84.50
66271;DHT22;53063;39.614;8.814;2022-07-29T01:51:07;23.70;84.40
66271;DHT22;53063;39.614;8.814;2022-07-29T01:54:03;23.60;84.00
66271;DHT22;53063;39.614;8.814;2022-07-29T01:56:32;23.60;83.50
66271;DHT22;53063;39.614;8.814;2022-07-29T01:59:01;23.60;82.70
66271;DHT22;53063;39.614;8.814;2022-07-29T02:01:30;23.50;82.30
66271;DHT22;53063;39.614;8.814;2022-07-29T02:03:57;23.50;82.30
66271;DHT22;53063;39.614;8.814;2022-07-29T02:06:26;23.60;82.00
66271;DHT22;53063;39.614;8.814;2022-07-29T02:08:53;23.60;81.50
66271;DHT22;53063;39.614;8.814;2022-07-29T02:11:20;23.50;81.10
66271;DHT22;53063;39.614;8.814;2022-07-29T02:13:46;23.30;80.90
66271;DHT22;53063;39.614;8.814;2022-07-29T02:16:14;23.40;80.80
66271;DHT22;53063;39.614;8.814;2022-07-29T02:18:44;23.40;80.40
66271;DHT22;53063;39.614;8.814;2022-07-29T02:21:12;23.40;80.10
66271;DHT22;53063;39.614;8.814;2022-07-29T02:23:38;23.40;79.80
66271;DHT22;53063;39.614;8.814;2022-07-29T02:26:06;23.40;79.50
66271;DHT22;53063;39.614;8.814;2022-07-29T02:28:33;23.50;79.30
66271;DHT22;53063;39.614;8.814;2022-07-29T02:31:01;23.50;79.00
66271;DHT22;53063;39.614;8.814;2022-07-29T02:33:28;23.50;78.80
66271;DHT22;53063;39.614;8.814;2022-07-29T02:35:56;23.40;78.70
66271;DHT22;53063;39.614;8.814;2022-07-29T02:38:25;23.40;78.60
66271;DHT22;53063;39.614;8.814;2022-07-29T02:41:15;23.50;78.20
66271;DHT22;53063;39.614;8.814;2022-07-29T02:43:43;23.50;78.20
66271;DHT22;53063;39.614;8.814;2022-07-29T02:46:14;23.30;78.10
66271;DHT22;53063;39.614;8.814;2022-07-29T02:48:48;23.30;78.30
66271;DHT22;53063;39.614;8.814;2022-07-29T02:51:21;23.20;78.40
66271;DHT22;53063;39.614;8.814;2022-07-29T02:53:51;23.00;78.40
66271;DHT22;53063;39.614;8.814;2022-07-29T02:56:25;22.70;78.70
66271;DHT22;53063;39.614;8.814;2022-07-29T02:59:02;22.60;79.20
66271;DHT22;53063;39.614;8.814;2022-07-29T03:01:31;22.60;79.40
66271;DHT22;53063;39.614;8.814;2022-07-29T03:04:03;22.70;79.20
66271;DHT22;53063;39.614;8.814;2022-07-29T03:06:30;22.70;78.70
66271;DHT22;53063;39.614;8.814;2022-07-29T03:08:59;22.70;78.70
66271;DHT22;53063;39.614;8.814;2022-07-29T03:11:25;22.60;78.70
66271;DHT22;53063;39.614;8.814;2022-07-29T03:13:52;22.70;78.90
66271;DHT22;53063;39.614;8.814;2022-07-29T03:16:20;22.80;78.40
66271;DHT22;53063;39.614;8.814;2022-07-29T03:18:47;22.90;77.80
66271;DHT22;53063;39.614;8.814;2022-07-29T03:21:13;22.90;77.50
66271;DHT22;53063;39.614;8.814;2022-07-29T03:23:43;22.80;77.40
66271;DHT22;53063;39.614;8.814;2022-07-29T03:26:11;22.60;78.00
66271;DHT22;53063;39.614;8.814;2022-07-29T03:28:37;22.40;78.20
66271;DHT22;53063;39.614;8.814;2022-07-29T03:31:03;22.30;78.30
66271;DHT22;53063;39.614;8.814;2022-07-29T03:33:29;22.20;78.40
66271;DHT22;53063;39.614;8.814;2022-07-29T03:35:56;22.10;78.60
66271;DHT22;53063;39.614;8.814;2022-07-29T03:38:25;22.10;78.80
66271;DHT22;53063;39.614;8.814;2022-07-29T03:41:06;22.10;78.90
66271;DHT22;53063;39.614;8.814;2022-07-29T03:43:36;22.10;79.10
66271;DHT22;53063;39.614;8.814;2022-07-29T03:46:04;22.40;78.20
66271;DHT22;53063;39.614;8.814;2022-07-29T03:48:34;22.40;77.50
66271;DHT22;53063;39.614;8.814;2022-07-29T03:51:01;22.50;77.30
66271;DHT22;53063;39.614;8.814;2022-07-29T03:53:28;22.50;77.00
66271;DHT22;53063;39.614;8.814;2022-07-29T03:55:59;22.60;76.50
66271;DHT22;53063;39.614;8.814;2022-07-29T03:58:27;22.70;76.10
66271;DHT22;53063;39.614;8.814;2022-07-29T04:00:54;22.80;75.70
66271;DHT22;53063;39.614;8.814;2022-07-29T04:03:20;22.80;75.50
66271;DHT22;53063;39.614;8.814;2022-07-29T04:06:01;22.80;75.50
66271;DHT22;53063;39.614;8.814;2022-07-29T04:08:28;22.80;75.50
66271;DHT22;53063;39.614;8.814;2022-07-29T04:10:54;23.00;75.50
66271;DHT22;53063;39.614;8.814;2022-07-29T04:13:20;23.00;76.00
66271;DHT22;53063;39.614;8.814;2022-07-29T04:15:46;23.00;76.00
66271;DHT22;53063;39.614;8.814;2022-07-29T04:18:12;23.00;75.90
66271;DHT22;53063;39.614;8.814;2022-07-29T04:20:38;22.80;75.80
66271;DHT22;53063;39.614;8.814;2022-07-29T04:23:04;22.60;75.90
66271;DHT22;53063;39.614;8.814;2022-07-29T04:25:30;22.50;76.30
66271;DHT22;53063;39.614;8.814;2022-07-29T04:27:55;22.50;76.50
66271;DHT22;53063;39.614;8.814;2022-07-29T04:30:28;22.70;76.40
66271;DHT22;53063;39.614;8.814;2022-07-29T04:32:54;22.70;75.90
66271;DHT22;53063;39.614;8.814;2022-07-29T04:35:20;22.80;75.60
66271;DHT22;53063;39.614;8.814;2022-07-29T04:37:46;22.80;75.10
66271;DHT22;53063;39.614;8.814;2022-07-29T04:40:12;22.80;75.40
66271;DHT22;53063;39.614;8.814;2022-07-29T04:42:39;22.70;75.30
66271;DHT22;53063;39.614;8.814;2022-07-29T04:45:05;22.50;75.80
66271;DHT22;53063;39.614;8.814;2022-07-29T04:47:31;22.20;75.40
66271;DHT22;53063;39.614;8.814;2022-07-29T04:49:57;22.00;75.70
66271;DHT22;53063;39.614;8.814;2022-07-29T04:52:23;21.90;76.00
66271;DHT22;53063;39.614;8.814;2022-07-29T04:54:49;21.90;76.00
66271;DHT22;53063;39.614;8.814;2022-07-29T04:57:15;21.90;76.30
66271;DHT22;53063;39.614;8.814;2022-07-29T04:59:41;21.90;76.60
66271;DHT22;53063;39.614;8.814;2022-07-29T05:02:07;22.00;76.80
66271;DHT22;53063;39.614;8.814;2022-07-29T05:04:33;22.00;76.60
66271;DHT22;53063;39.614;8.814;2022-07-29T05:06:59;22.00;76.60
66271;DHT22;53063;39.614;8.814;2022-07-29T05:09:24;22.20;76.60
66271;DHT22;53063;39.614;8.814;2022-07-29T05:11:50;22.40;76.40
66271;DHT22;53063;39.614;8.814;2022-07-29T05:14:16;22.40;76.40
66271;DHT22;53063;39.614;8.814;2022-07-29T05:16:42;22.50;76.40
66271;DHT22;53063;39.614;8.814;2022-07-29T05:19:09;22.40;76.30
66271;DHT22;53063;39.614;8.814;2022-07-29T05:21:35;22.50;76.60
66271;DHT22;53063;39.614;8.814;2022-07-29T05:24:01;22.60;76.50
66271;DHT22;53063;39.614;8.814;2022-07-29T05:26:27;22.70;76.60
66271;DHT22;53063;39.614;8.814;2022-07-29T05:28:53;22.70;76.30
66271;DHT22;53063;39.614;8.814;2022-07-29T05:31:19;22.80;75.70
66271;DHT22;53063;39.614;8.814;2022-07-29T05:33:45;22.90;75.80
66271;DHT22;53063;39.614;8.814;2022-07-29T05:36:11;23.10;75.10
66271;DHT22;53063;39.614;8.814;2022-07-29T05:38:37;23.30;74.30
66271;DHT22;53063;39.614;8.814;2022-07-29T05:41:04;23.30;73.60
66271;DHT22;53063;39.614;8.814;2022-07-29T05:43:30;23.50;72.70
66271;DHT22;53063;39.614;8.814;2022-07-29T05:45:56;23.70;72.40
66271;DHT22;53063;39.614;8.814;2022-07-29T05:48:22;23.80;72.20
66271;DHT22;53063;39.614;8.814;2022-07-29T05:50:48;24.10;70.60
66271;DHT22;53063;39.614;8.814;2022-07-29T05:53:14;24.20;69.40
66271;DHT22;53063;39.614;8.814;2022-07-29T05:55:41;24.30;68.60
66271;DHT22;53063;39.614;8.814;2022-07-29T05:58:07;24.50;69.10
66271;DHT22;53063;39.614;8.814;2022-07-29T06:00:33;24.70;68.50
66271;DHT22;53063;39.614;8.814;2022-07-29T06:03:00;24.90;68.10
66271;DHT22;53063;39.614;8.814;2022-07-29T06:05:25;25.10;67.80
66271;DHT22;53063;39.614;8.814;2022-07-29T06:07:51;25.90;65.90
66271;DHT22;53063;39.614;8.814;2022-07-29T06:10:17;27.40;62.00
66271;DHT22;53063;39.614;8.814;2022-07-29T06:12:44;28.20;58.50
66271;DHT22;53063;39.614;8.814;2022-07-29T06:15:10;27.50;60.00
66271;DHT22;53063;39.614;8.814;2022-07-29T06:17:36;26.90;61.00
66271;DHT22;53063;39.614;8.814;2022-07-29T06:20:03;26.60;61.80
66271;DHT22;53063;39.614;8.814;2022-07-29T06:22:29;26.20;62.60
66271;DHT22;53063;39.614;8.814;2022-07-29T06:24:55;26.30;63.10
66271;DHT22;53063;39.614;8.814;2022-07-29T06:27:21;26.60;62.90
66271;DHT22;53063;39.614;8.814;2022-07-29T06:29:47;26.70;62.80
66271;DHT22;53063;39.614;8.814;2022-07-29T06:32:13;26.80;62.30
66271;DHT22;53063;39.614;8.814;2022-07-29T06:34:39;27.00;62.10
66271;DHT22;53063;39.614;8.814;2022-07-29T06:37:06;27.40;61.60
66271;DHT22;53063;39.614;8.814;2022-07-29T06:39:34;27.60;59.90
66271;DHT22;53063;39.614;8.814;2022-07-29T06:42:01;27.70;59.10
66271;DHT22;53063;39.614;8.814;2022-07-29T06:44:26;27.60;58.50
66271;DHT22;53063;39.614;8.814;2022-07-29T06:46:52;27.70;57.90
66271;DHT22;53063;39.614;8.814;2022-07-29T06:49:20;28.00;57.80
66271;DHT22;53063;39.614;8.814;2022-07-29T06:51:46;28.10;56.60
66271;DHT22;53063;39.614;8.814;2022-07-29T06:54:12;28.20;55.50
66271;DHT22;53063;39.614;8.814;2022-07-29T06:56:37;28.20;55.30
66271;DHT22;53063;39.614;8.814;2022-07-29T06:59:04;28.20;55.60
66271;DHT22;53063;39.614;8.814;2022-07-29T07:01:30;28.50;55.20
66271;DHT22;53063;39.614;8.814;2022-07-29T07:03:56;28.40;55.00
66271;DHT22;53063;39.614;8.814;2022-07-29T07:06:22;28.60;54.70
66271;DHT22;53063;39.614;8.814;2022-07-29T07:08:48;28.90;54.80
66271;DHT22;53063;39.614;8.814;2022-07-29T07:11:14;29.00;54.40
66271;DHT22;53063;39.614;8.814;2022-07-29T07:13:40;29.20;54.70
66271;DHT22;53063;39.614;8.814;2022-07-29T07:16:05;29.30;53.90
66271;DHT22;53063;39.614;8.814;2022-07-29T07:18:31;29.40;54.10
66271;DHT22;53063;39.614;8.814;2022-07-29T07:20:58;29.40;53.70
66271;DHT22;53063;39.614;8.814;2022-07-29T07:23:24;29.60;53.60
66271;DHT22;53063;39.614;8.814;2022-07-29T07:25:50;30.00;52.70
66271;DHT22;53063;39.614;8.814;2022-07-29T07:28:16;29.80;51.00
66271;DHT22;53063;39.614;8.814;2022-07-29T07:30:42;29.70;53.90
66271;DHT22;53063;39.614;8.814;2022-07-29T07:33:09;29.80;53.50
66271;DHT22;53063;39.614;8.814;2022-07-29T07:35:35;30.20;53.30
66271;DHT22;53063;39.614;8.814;2022-07-29T07:38:00;30.40;52.70
66271;DHT22;53063;39.614;8.814;2022-07-29T07:40:26;30.20;54.50
66271;DHT22;53063;39.614;8.814;2022-07-29T07:42:52;30.50;55.10
66271;DHT22;53063;39.614;8.814;2022-07-29T07:45:18;30.40;55.10
66271;DHT22;53063;39.614;8.814;2022-07-29T07:47:44;30.60;52.70
66271;DHT22;53063;39.614;8.814;2022-07-29T07:50:11;30.90;53.80
66271;DHT22;53063;39.614;8.814;2022-07-29T07:52:57;30.70;54.70
66271;DHT22;53063;39.614;8.814;2022-07-29T07:55:24;31.00;54.30
66271;DHT22;53063;39.614;8.814;2022-07-29T07:57:50;31.10;53.00
66271;DHT22;53063;39.614;8.814;2022-07-29T08:00:16;31.00;53.70
66271;DHT22;53063;39.614;8.814;2022-07-29T08:02:43;31.10;53.80
66271;DHT22;53063;39.614;8.814;2022-07-29T08:05:10;31.30;53.00
66271;DHT22;53063;39.614;8.814;2022-07-29T08:07:38;31.10;53.70
66271;DHT22;53063;39.614;8.814;2022-07-29T08:10:04;31.50;53.50
66271;DHT22;53063;39.614;8.814;2022-07-29T08:12:30;31.50;50.20
66271;DHT22;53063;39.614;8.814;2022-07-29T08:14:56;31.30;50.30
66271;DHT22;53063;39.614;8.814;2022-07-29T08:17:22;31.70;49.90
66271;DHT22;53063;39.614;8.814;2022-07-29T08:19:48;32.10;50.20
66271;DHT22;53063;39.614;8.814;2022-07-29T08:22:15;31.80;49.70
66271;DHT22;53063;39.614;8.814;2022-07-29T08:24:41;32.00;49.10
66271;DHT22;53063;39.614;8.814;2022-07-29T08:27:12;32.40;46.60
66271;DHT22;53063;39.614;8.814;2022-07-29T08:29:39;32.70;47.30
66271;DHT22;53063;39.614;8.814;2022-07-29T08:32:06;32.50;47.60
66271;DHT22;53063;39.614;8.814;2022-07-29T08:34:32;32.40;47.80
66271;DHT22;53063;39.614;8.814;2022-07-29T08:36:58;32.70;46.80
66271;DHT22;53063;39.614;8.814;2022-07-29T08:39:24;32.80;45.20
66271;DHT22;53063;39.614;8.814;2022-07-29T08:41:51;33.00;44.80
66271;DHT22;53063;39.614;8.814;2022-07-29T08:44:18;32.70;46.20
66271;DHT22;53063;39.614;8.814;2022-07-29T08:46:45;32.90;46.10
66271;DHT22;53063;39.614;8.814;2022-07-29T08:49:11;32.90;44.20
66271;DHT22;53063;39.614;8.814;2022-07-29T08:51:40;33.00;45.50
66271;DHT22;53063;39.614;8.814;2022-07-29T08:54:09;32.90;45.00
66271;DHT22;53063;39.614;8.814;2022-07-29T08:56:35;33.00;44.40
66271;DHT22;53063;39.614;8.814;2022-07-29T08:59:05;33.60;43.70
66271;DHT22;53063;39.614;8.814;2022-07-29T09:01:33;33.60;43.40
66271;DHT22;53063;39.614;8.814;2022-07-29T09:04:03;33.60;41.70
66271;DHT22;53063;39.614;8.814;2022-07-29T09:06:32;33.60;41.70
66271;DHT22;53063;39.614;8.814;2022-07-29T09:09:00;33.60;42.70
66271;DHT22;53063;39.614;8.814;2022-07-29T09:11:26;33.80;41.80
66271;DHT22;53063;39.614;8.814;2022-07-29T09:13:52;33.70;41.80
66271;DHT22;53063;39.614;8.814;2022-07-29T09:16:18;33.40;42.40
66271;DHT22;53063;39.614;8.814;2022-07-29T09:18:46;33.60;42.90
66271;DHT22;53063;39.614;8.814;2022-07-29T09:21:17;34.20;40.20
66271;DHT22;53063;39.614;8.814;2022-07-29T09:24:06;34.70;39.40
66271;DHT22;53063;39.614;8.814;2022-07-29T09:26:37;34.50;39.90
66271;DHT22;53063;39.614;8.814;2022-07-29T09:29:12;34.50;39.50
66271;DHT22;53063;39.614;8.814;2022-07-29T09:31:43;34.40;39.60
66271;DHT22;53063;39.614;8.814;2022-07-29T09:34:11;34.60;38.00
66271;DHT22;53063;39.614;8.814;2022-07-29T09:36:41;34.10;38.60
66271;DHT22;53063;39.614;8.814;2022-07-29T09:39:07;34.00;38.00
66271;DHT22;53063;39.614;8.814;2022-07-29T09:41:50;34.20;38.60
66271;DHT22;53063;39.614;8.814;2022-07-29T09:44:20;34.30;38.90
66271;DHT22;53063;39.614;8.814;2022-07-29T09:46:58;35.10;37.90
66271;DHT22;53063;39.614;8.814;2022-07-29T09:49:24;35.10;37.10
66271;DHT22;53063;39.614;8.814;2022-07-29T09:52:07;35.30;37.00
66271;DHT22;53063;39.614;8.814;2022-07-29T09:54:33;35.60;36.70
66271;DHT22;53063;39.614;8.814;2022-07-29T09:57:04;35.20;36.60
66271;DHT22;53063;39.614;8.814;2022-07-29T09:59:30;35.00;36.80
66271;DHT22;53063;39.614;8.814;2022-07-29T10:01:56;34.70;37.20
66271;DHT22;53063;39.614;8.814;2022-07-29T10:04:22;35.50;35.70
66271;DHT22;53063;39.614;8.814;2022-07-29T10:07:02;35.20;36.70
66271;DHT22;53063;39.614;8.814;2022-07-29T10:09:29;35.20;36.60
66271;DHT22;53063;39.614;8.814;2022-07-29T10:12:10;35.50;35.60
66271;DHT22;53063;39.614;8.814;2022-07-29T10:14:40;35.50;35.90
66271;DHT22;53063;39.614;8.814;2022-07-29T10:17:08;35.80;35.80
66271;DHT22;53063;39.614;8.814;2022-07-29T10:19:35;36.60;34.40
66271;DHT22;53063;39.614;8.814;2022-07-29T10:22:04;36.80;33.10
66271;DHT22;53063;39.614;8.814;2022-07-29T10:24:31;36.30;34.10
66271;DHT22;53063;39.614;8.814;2022-07-29T10:27:02;36.30;33.70
66271;DHT22;53063;39.614;8.814;2022-07-29T10:29:29;36.20;34.60
66271;DHT22;53063;39.614;8.814;2022-07-29T10:32:11;36.60;33.80
66271;DHT22;53063;39.614;8.814;2022-07-29T10:40:46;37.00;33.20
66271;DHT22;53063;39.614;8.814;2022-07-29T10:43:37;36.90;32.60
66271;DHT22;53063;39.614;8.814;2022-07-29T10:46:07;36.90;32.90
66271;DHT22;53063;39.614;8.814;2022-07-29T10:48:33;37.40;32.80
66271;DHT22;53063;39.614;8.814;2022-07-29T10:51:03;37.40;32.70
66271;DHT22;53063;39.614;8.814;2022-07-29T10:53:50;37.40;31.80
66271;DHT22;53063;39.614;8.814;2022-07-29T10:56:27;37.00;31.70
66271;DHT22;53063;39.614;8.814;2022-07-29T11:01:52;37.60;31.50
66271;DHT22;53063;39.614;8.814;2022-07-29T11:07:10;37.70;31.40
66271;DHT22;53063;39.614;8.814;2022-07-29T11:09:36;37.80;31.40
66271;DHT22;53063;39.614;8.814;2022-07-29T11:12:02;37.90;30.10
66271;DHT22;53063;39.614;8.814;2022-07-29T11:17:20;37.80;29.40
66271;DHT22;53063;39.614;8.814;2022-07-29T11:19:46;38.10;29.50
66271;DHT22;53063;39.614;8.814;2022-07-29T11:22:34;37.70;28.40
66271;DHT22;53063;39.614;8.814;2022-07-29T11:25:17;37.50;29.40
66271;DHT22;53063;39.614;8.814;2022-07-29T11:27:46;37.90;28.80
66271;DHT22;53063;39.614;8.814;2022-07-29T11:30:13;38.20;29.30
66271;DHT22;53063;39.614;8.814;2022-07-29T11:32:41;38.30;28.40
66271;DHT22;53063;39.614;8.814;2022-07-29T11:35:12;37.60;28.50
66271;DHT22;53063;39.614;8.814;2022-07-29T11:37:38;38.00;28.50
66271;DHT22;53063;39.614;8.814;2022-07-29T11:45:17;38.40;28.00
66271;DHT22;53063;39.614;8.814;2022-07-29T11:47:47;38.40;27.70
66271;DHT22;53063;39.614;8.814;2022-07-29T11:50:16;38.60;27.30
66271;DHT22;53063;39.614;8.814;2022-07-29T11:52:47;38.60;26.70
66271;DHT22;53063;39.614;8.814;2022-07-29T11:55:20;38.40;27.50
66271;DHT22;53063;39.614;8.814;2022-07-29T11:57:58;38.20;27.20
66271;DHT22;53063;39.614;8.814;2022-07-29T12:00:37;39.50;26.20
66271;DHT22;53063;39.614;8.814;2022-07-29T12:03:06;39.60;25.50
66271;DHT22;53063;39.614;8.814;2022-07-29T12:05:43;39.40;26.10
66271;DHT22;53063;39.614;8.814;2022-07-29T12:08:23;39.30;27.00
66271;DHT22;53063;39.614;8.814;2022-07-29T12:10:52;39.50;26.30
66271;DHT22;53063;39.614;8.814;2022-07-29T12:13:19;39.70;26.50
66271;DHT22;53063;39.614;8.814;2022-07-29T12:15:57;40.00;26.40
66271;DHT22;53063;39.614;8.814;2022-07-29T12:18:24;39.60;27.20
66271;DHT22;53063;39.614;8.814;2022-07-29T12:20:57;39.20;26.90
66271;DHT22;53063;39.614;8.814;2022-07-29T12:23:23;39.00;27.30
66271;DHT22;53063;39.614;8.814;2022-07-29T12:25:49;39.40;26.80
66271;DHT22;53063;39.614;8.814;2022-07-29T12:28:15;39.30;27.80
66271;DHT22;53063;39.614;8.814;2022-07-29T12:30:49;39.70;27.00
66271;DHT22;53063;39.614;8.814;2022-07-29T12:33:26;38.90;28.10
66271;DHT22;53063;39.614;8.814;2022-07-29T12:36:00;38.60;28.50
66271;DHT22;53063;39.614;8.814;2022-07-29T12:38:27;38.90;28.40
66271;DHT22;53063;39.614;8.814;2022-07-29T12:40:54;39.20;28.30
66271;DHT22;53063;39.614;8.814;2022-07-29T12:43:21;39.40;27.90
66271;DHT22;53063;39.614;8.814;2022-07-29T12:45:52;39.40;31.00
66271;DHT22;53063;39.614;8.814;2022-07-29T12:48:39;39.00;33.50
66271;DHT22;53063;39.614;8.814;2022-07-29T12:51:06;39.30;33.40
66271;DHT22;53063;39.614;8.814;2022-07-29T12:53:33;39.80;32.60
66271;DHT22;53063;39.614;8.814;2022-07-29T12:55:59;40.20;32.20
66271;DHT22;53063;39.614;8.814;2022-07-29T12:58:40;40.10;32.10
66271;DHT22;53063;39.614;8.814;2022-07-29T13:01:15;40.10;31.80
66271;DHT22;53063;39.614;8.814;2022-07-29T13:03:56;40.20;31.70
66271;DHT22;53063;39.614;8.814;2022-07-29T13:06:40;40.10;31.80
66271;DHT22;53063;39.614;8.814;2022-07-29T13:09:14;39.80;32.00
66271;DHT22;53063;39.614;8.814;2022-07-29T13:11:46;39.50;32.40
66271;DHT22;53063;39.614;8.814;2022-07-29T13:14:20;39.40;33.40
66271;DHT22;53063;39.614;8.814;2022-07-29T13:17:15;39.30;33.60
66271;DHT22;53063;39.614;8.814;2022-07-29T13:19:51;39.00;34.00
66271;DHT22;53063;39.614;8.814;2022-07-29T13:22:21;39.00;34.10
66271;DHT22;53063;39.614;8.814;2022-07-29T13:24:52;38.80;34.80
66271;DHT22;53063;39.614;8.814;2022-07-29T13:27:23;38.70;34.90
66271;DHT22;53063;39.614;8.814;2022-07-29T13:29:49;38.50;35.10
66271;DHT22;53063;39.614;8.814;2022-07-29T13:32:19;38.40;35.60
66271;DHT22;53063;39.614;8.814;2022-07-29T13:34:45;38.40;35.20
66271;DHT22;53063;39.614;8.814;2022-07-29T13:37:11;38.20;34.00
66271;DHT22;53063;39.614;8.814;2022-07-29T13:39:37;37.90;35.30
66271;DHT22;53063;39.614;8.814;2022-07-29T13:42:04;37.80;36.40
66271;DHT22;53063;39.614;8.814;2022-07-29T13:44:30;37.80;36.00
66271;DHT22;53063;39.614;8.814;2022-07-29T13:46:56;37.60;37.20
66271;DHT22;53063;39.614;8.814;2022-07-29T13:49:25;37.50;36.90
66271;DHT22;53063;39.614;8.814;2022-07-29T13:51:51;37.50;37.50
66271;DHT22;53063;39.614;8.814;2022-07-29T13:54:17;37.40;37.10
66271;DHT22;53063;39.614;8.814;2022-07-29T13:56:43;37.10;37.70
66271;DHT22;53063;39.614;8.814;2022-07-29T13:59:09;37.20;36.70
66271;DHT22;53063;39.614;8.814;2022-07-29T14:01:35;37.00;38.30
66271;DHT22;53063;39.614;8.814;2022-07-29T14:04:02;36.90;37.40
66271;DHT22;53063;39.614;8.814;2022-07-29T14:06:28;36.70;36.80
66271;DHT22;53063;39.614;8.814;2022-07-29T14:08:53;36.70;37.70
66271;DHT22;53063;39.614;8.814;2022-07-29T14:11:19;36.60;37.90
66271;DHT22;53063;39.614;8.814;2022-07-29T14:13:45;36.60;37.40
66271;DHT22;53063;39.614;8.814;2022-07-29T14:16:11;36.60;37.90
66271;DHT22;53063;39.614;8.814;2022-07-29T14:18:37;36.40;36.90
66271;DHT22;53063;39.614;8.814;2022-07-29T14:21:03;36.30;37.80
66271;DHT22;53063;39.614;8.814;2022-07-29T14:23:29;35.90;37.50
66271;DHT22;53063;39.614;8.814;2022-07-29T14:25:55;35.90;37.60
66271;DHT22;53063;39.614;8.814;2022-07-29T14:28:21;35.70;37.50
66271;DHT22;53063;39.614;8.814;2022-07-29T14:30:47;35.80;37.90
66271;DHT22;53063;39.614;8.814;2022-07-29T14:33:13;35.70;37.50
66271;DHT22;53063;39.614;8.814;2022-07-29T14:35:39;35.60;36.60
66271;DHT22;53063;39.614;8.814;2022-07-29T14:38:05;35.50;36.20
66271;DHT22;53063;39.614;8.814;2022-07-29T14:40:30;35.50;36.10
66271;DHT22;53063;39.614;8.814;2022-07-29T14:42:56;35.60;35.70
66271;DHT22;53063;39.614;8.814;2022-07-29T14:45:23;35.40;34.90
66271;DHT22;53063;39.614;8.814;2022-07-29T14:47:49;35.30;35.20
66271;DHT22;53063;39.614;8.814;2022-07-29T14:50:16;35.30;35.00
66271;DHT22;53063;39.614;8.814;2022-07-29T14:52:42;35.20;34.80
66271;DHT22;53063;39.614;8.814;2022-07-29T14:55:08;35.10;34.70
66271;DHT22;53063;39.614;8.814;2022-07-29T14:57:34;35.20;34.90
66271;DHT22;53063;39.614;8.814;2022-07-29T15:00:01;35.40;34.80
66271;DHT22;53063;39.614;8.814;2022-07-29T15:02:27;35.50;34.40
66271;DHT22;53063;39.614;8.814;2022-07-29T15:04:52;35.40;35.00
66271;DHT22;53063;39.614;8.814;2022-07-29T15:07:18;35.30;35.40
66271;DHT22;53063;39.614;8.814;2022-07-29T15:09:44;35.10;35.60
66271;DHT22;53063;39.614;8.814;2022-07-29T15:12:11;34.90;35.60
66271;DHT22;53063;39.614;8.814;2022-07-29T15:14:37;34.90;36.60
66271;DHT22;53063;39.614;8.814;2022-07-29T15:17:03;35.00;36.20
66271;DHT22;53063;39.614;8.814;2022-07-29T15:19:29;34.90;36.20
66271;DHT22;53063;39.614;8.814;2022-07-29T15:21:54;35.00;36.50
66271;DHT22;53063;39.614;8.814;2022-07-29T15:24:20;35.10;36.30
66271;DHT22;53063;39.614;8.814;2022-07-29T15:26:47;35.00;36.40
66271;DHT22;53063;39.614;8.814;2022-07-29T15:29:13;34.90;36.30
66271;DHT22;53063;39.614;8.814;2022-07-29T15:31:39;34.80;36.70
66271;DHT22;53063;39.614;8.814;2022-07-29T15:34:05;34.90;36.70
66271;DHT22;53063;39.614;8.814;2022-07-29T15:36:31;35.00;36.30
66271;DHT22;53063;39.614;8.814;2022-07-29T15:38:57;34.80;36.10
66271;DHT22;53063;39.614;8.814;2022-07-29T15:41:23;34.70;36.20
66271;DHT22;53063;39.614;8.814;2022-07-29T15:43:49;34.80;36.40
66271;DHT22;53063;39.614;8.814;2022-07-29T15:46:18;34.70;35.80
66271;DHT22;53063;39.614;8.814;2022-07-29T15:49:04;34.80;36.30
66271;DHT22;53063;39.614;8.814;2022-07-29T15:51:30;34.70;36.80
66271;DHT22;53063;39.614;8.814;2022-07-29T15:53:56;34.60;36.80
66271;DHT22;53063;39.614;8.814;2022-07-29T15:56:23;34.50;36.80
66271;DHT22;53063;39.614;8.814;2022-07-29T15:58:49;34.50;36.90
66271;DHT22;53063;39.614;8.814;2022-07-29T16:01:16;34.40;37.00
66271;DHT22;53063;39.614;8.814;2022-07-29T16:03:41;34.30;36.80
66271;DHT22;53063;39.614;8.814;2022-07-29T16:06:08;34.20;36.70
66271;DHT22;53063;39.614;8.814;2022-07-29T16:08:34;34.20;36.50
66271;DHT22;53063;39.614;8.814;2022-07-29T16:11:00;34.20;36.40